Time;durP1;ratioP1;P1;durP2;ratioP2;P2;SDS_P1;SDS_P2;PMS_P1;PMS_P2;Temp;Humidity;BMP_temperature;BMP_pressure;BME280_temperature;BME280_humidity;BME280_pressure;Samples;Min_cycle;Max_cycle;Signal;HPM_P1;HPM_P2
2022/10/30 00:00:18;;;;;;;26.23;16.65;;;;;;;12.66;100.00;100755.44;4997335;28;20289;-75
2022/10/30 00:02:46;;;;;;;32.80;20.20;;;;;;;12.51;100.00;100750.78;4996762;28;20223;-74
2022/10/30 00:05:14;;;;;;;28.45;21.30;;;;;;;12.47;100.00;100749.16;4997394;28;20196;-73
2022/10/30 00:07:41;;;;;;;30.25;23.75;;;;;;;12.46;100.00;100739.31;4996175;28;20209;-73
2022/10/30 00:10:08;;;;;;;29.02;21.63;;;;;;;12.49;100.00;100739.16;4996321;28;20210;-76
2022/10/30 00:12:35;;;;;;;29.20;24.20;;;;;;;12.50;100.00;100735.50;4997055;28;20230;-73
2022/10/30 00:15:02;;;;;;;53.75;38.95;;;;;;;12.46;100.00;100725.81;4996721;28;20673;-75
2022/10/30 00:17:28;;;;;;;42.10;26.25;;;;;;;12.51;100.00;100726.44;4996288;28;20209;-74
2022/10/30 00:19:55;;;;;;;34.97;21.00;;;;;;;12.52;100.00;100725.50;5006976;28;20209;-73
2022/10/30 00:22:23;;;;;;;33.40;19.55;;;;;;;12.40;100.00;100723.38;5015654;28;20408;-74
2022/10/30 00:24:49;;;;;;;34.05;21.85;;;;;;;12.44;100.00;100719.59;5016597;28;20216;-74
2022/10/30 00:27:16;;;;;;;33.25;19.17;;;;;;;12.44;100.00;100716.91;5016417;28;20564;-74
2022/10/30 00:29:43;;;;;;;25.10;18.40;;;;;;;12.39;100.00;100710.81;5015105;28;20203;-76
2022/10/30 00:32:09;;;;;;;24.88;18.38;;;;;;;12.39;100.00;100716.22;5015663;28;20312;-74
2022/10/30 00:34:36;;;;;;;26.08;17.48;;;;;;;12.35;100.00;100709.25;5000146;28;20203;-73
2022/10/30 00:37:03;;;;;;;26.90;18.77;;;;;;;12.34;100.00;100715.56;4996103;28;20207;-75
2022/10/30 00:39:30;;;;;;;28.90;18.83;;;;;;;12.34;100.00;100720.97;5002022;28;20207;-75
2022/10/30 00:41:59;;;;;;;30.92;19.90;;;;;;;12.38;100.00;100719.88;5010923;28;20215;-74
2022/10/30 00:44:35;;;;;;;30.27;19.73;;;;;;;12.41;100.00;100719.72;5044583;22;20326;-77
2022/10/30 00:47:05;;;;;;;25.77;18.58;;;;;;;12.48;100.00;100721.19;5029924;28;20194;-75
2022/10/30 00:49:35;;;;;;;26.20;18.67;;;;;;;12.45;100.00;100724.03;5013972;28;20575;-75
2022/10/30 00:52:05;;;;;;;26.48;18.35;;;;;;;12.38;100.00;100722.59;5012508;28;20222;-75
2022/10/30 00:54:34;;;;;;;25.23;17.98;;;;;;;12.18;100.00;100713.59;4993133;28;20213;-74
2022/10/30 00:57:01;;;;;;;25.90;17.70;;;;;;;12.15;100.00;100724.53;4993142;28;20226;-75
2022/10/30 00:59:32;;;;;;;27.92;18.40;;;;;;;12.13;100.00;100715.63;4993476;28;20199;-76
2022/10/30 01:02:00;;;;;;;24.40;17.75;;;;;;;12.22;100.00;100719.75;4997347;28;20190;-73
2022/10/30 01:04:28;;;;;;;28.15;19.10;;;;;;;12.18;100.00;100719.00;5012493;28;20738;-74
2022/10/30 01:06:55;;;;;;;24.33;18.85;;;;;;;12.16;100.00;100718.19;5012521;28;20206;-74
2022/10/30 01:09:22;;;;;;;25.90;17.45;;;;;;;12.24;100.00;100715.16;5012241;28;20333;-74
2022/10/30 01:11:50;;;;;;;23.48;16.73;;;;;;;12.28;100.00;100717.63;5013317;28;20226;-75
2022/10/30 01:14:19;;;;;;;54.92;40.17;;;;;;;12.30;100.00;100715.72;5012737;28;20219;-74
2022/10/30 01:16:59;;;;;;;37.90;31.17;;;;;;;12.22;100.00;100714.34;5011850;28;20205;-74
2022/10/30 01:19:35;;;;;;;25.08;17.55;;;;;;;12.24;100.00;100710.63;5013876;28;20191;-75
2022/10/30 01:22:18;;;;;;;31.60;17.13;;;;;;;12.25;100.00;100727.69;5012639;28;20186;-75
2022/10/30 01:24:56;;;;;;;23.50;16.30;;;;;;;12.22;100.00;100719.75;5015164;28;20183;-75
2022/10/30 01:27:39;;;;;;;23.60;16.60;;;;;;;12.14;100.00;100714.69;5012440;28;20194;-75
2022/10/30 01:30:16;;;;;;;27.65;17.40;;;;;;;12.14;100.00;100720.06;5012479;28;20194;-77
2022/10/30 01:32:56;;;;;;;23.70;17.48;;;;;;;12.11;100.00;100720.22;5012307;28;20230;-76
2022/10/30 01:35:32;;;;;;;23.70;17.33;;;;;;;12.11;100.00;100714.84;5012166;28;20210;-75
2022/10/30 01:38:04;;;;;;;20.92;16.70;;;;;;;12.17;100.00;100719.09;5012334;28;20242;-77
2022/10/30 01:40:32;;;;;;;20.70;16.80;;;;;;;12.13;100.00;100712.94;5012437;28;20553;-76
2022/10/30 01:43:00;;;;;;;22.95;16.55;;;;;;;12.10;100.00;100705.00;5019547;28;20628;-77
2022/10/30 01:45:44;;;;;;;26.52;17.05;;;;;;;11.89;100.00;100702.34;5023344;28;20209;-76
2022/10/30 01:48:31;;;;;;;24.48;16.73;;;;;;;11.96;100.00;100700.25;5013832;28;20207;-75
2022/10/30 01:51:05;;;;;;;30.52;18.10;;;;;;;11.98;100.00;100700.16;5014988;28;20195;-75
2022/10/30 01:53:45;;;;;;;21.35;17.10;;;;;;;11.93;100.00;100703.06;5014490;28;20230;-76
2022/10/30 01:56:21;;;;;;;24.83;16.30;;;;;;;11.94;100.00;100698.53;5018593;28;20183;-76
2022/10/30 01:58:54;;;;;;;25.65;18.52;;;;;;;11.95;100.00;100703.88;5017790;28;20198;-74
2022/10/30 02:01:21;;;;;;;26.75;16.63;;;;;;;11.92;100.00;100698.63;5015815;28;20560;-75
2022/10/30 02:03:50;;;;;;;23.40;16.80;;;;;;;11.89;100.00;100694.25;5018675;28;20233;-74
2022/10/30 02:06:17;;;;;;;22.27;16.85;;;;;;;11.90;100.00;100700.50;5018680;28;20642;-74
2022/10/30 02:08:43;;;;;;;28.23;16.92;;;;;;;11.82;100.00;100703.50;5017894;28;20213;-76
2022/10/30 02:11:10;;;;;;;26.58;16.88;;;;;;;11.81;100.00;100695.50;5018221;28;20202;-73
2022/10/30 02:13:38;;;;;;;22.90;16.30;;;;;;;11.82;100.00;100692.72;5012526;28;20219;-74
2022/10/30 02:16:07;;;;;;;24.30;16.60;;;;;;;11.87;100.00;100696.16;4996222;28;20210;-75
2022/10/30 02:18:34;;;;;;;21.30;15.45;;;;;;;11.84;100.00;100698.94;4996771;28;20214;-75
2022/10/30 02:21:02;;;;;;;23.42;16.67;;;;;;;11.91;100.00;100701.38;5002433;28;20209;-74
2022/10/30 02:23:28;;;;;;;25.35;16.80;;;;;;;11.92;100.00;100712.13;5031048;28;20222;-74
2022/10/30 02:25:55;;;;;;;23.85;16.77;;;;;;;11.97;100.00;100703.81;5027919;28;20217;-75
2022/10/30 02:28:21;;;;;;;20.90;15.35;;;;;;;11.96;100.00;100707.44;5023673;28;20213;-75
2022/10/30 02:30:48;;;;;;;27.48;17.40;;;;;;;11.89;100.00;100704.16;5016822;28;20201;-74
2022/10/30 02:33:14;;;;;;;25.30;17.50;;;;;;;11.85;100.00;100707.94;5001727;28;20724;-76
2022/10/30 02:35:41;;;;;;;24.92;15.75;;;;;;;11.88;100.00;100713.19;4996120;28;20203;-75
2022/10/30 02:38:09;;;;;;;24.30;16.70;;;;;;;11.93;100.00;100718.38;4995164;28;20297;-74
2022/10/30 02:40:35;;;;;;;27.15;18.02;;;;;;;11.95;100.00;100711.97;4995414;28;20572;-75
2022/10/30 02:43:02;;;;;;;27.98;17.42;;;;;;;11.95;100.00;100711.97;4995131;28;20231;-75
2022/10/30 02:45:29;;;;;;;20.30;17.20;;;;;;;11.98;100.00;100719.03;4995410;28;20203;-75
2022/10/30 02:47:55;;;;;;;25.38;17.35;;;;;;;12.03;100.00;100712.50;5017619;28;20202;-74
2022/10/30 02:50:22;;;;;;;23.08;16.95;;;;;;;11.99;100.00;100723.50;5024504;28;20634;-73
2022/10/30 02:52:48;;;;;;;24.98;16.10;;;;;;;12.02;100.00;100726.94;5016819;28;20318;-74
2022/10/30 02:55:16;;;;;;;19.63;16.73;;;;;;;12.02;100.00;100723.38;5014728;28;20669;-76
2022/10/30 02:57:43;;;;;;;19.25;16.40;;;;;;;12.02;100.00;100723.38;5002985;28;20200;-75
2022/10/30 03:00:11;;;;;;;22.90;16.83;;;;;;;12.01;100.00;100724.31;4996239;28;20214;-73
2022/10/30 03:02:37;;;;;;;28.48;16.45;;;;;;;12.08;100.00;100723.09;4995721;28;20751;-76
2022/10/30 03:05:04;;;;;;;21.85;16.73;;;;;;;12.10;100.00;100732.00;4995301;28;20250;-75
2022/10/30 03:07:30;;;;;;;27.70;16.25;;;;;;;12.13;100.00;100731.84;4995339;28;20209;-74
2022/10/30 03:09:57;;;;;;;26.40;16.67;;;;;;;12.09;100.00;100731.09;4996051;28;20207;-76
2022/10/30 03:12:25;;;;;;;19.10;16.40;;;;;;;12.05;100.00;100729.50;4995355;28;20610;-74
2022/10/30 03:14:51;;;;;;;21.70;16.33;;;;;;;12.06;100.00;100741.19;4994907;28;20738;-75
2022/10/30 03:17:18;;;;;;;19.77;15.35;;;;;;;12.05;100.00;100726.81;4994298;28;20203;-76
2022/10/30 03:19:44;;;;;;;25.35;17.08;;;;;;;12.18;100.00;100728.91;4995256;28;20195;-74
2022/10/30 03:22:11;;;;;;;19.73;15.48;;;;;;;12.15;100.00;100718.28;4994356;28;20215;-75
2022/10/30 03:24:37;;;;;;;20.30;15.13;;;;;;;12.15;100.00;100721.84;4998408;28;20194;-75
2022/10/30 03:27:04;;;;;;;25.58;15.82;;;;;;;12.22;100.00;100717.91;5015216;28;20256;-74
2022/10/30 03:29:32;;;;;;;27.13;15.68;;;;;;;12.18;100.00;100724.38;5013140;28;20209;-74
2022/10/30 03:31:58;;;;;;;19.60;15.02;;;;;;;12.16;100.00;100722.72;5013001;28;20194;-74
2022/10/30 03:34:25;;;;;;;25.17;17.02;;;;;;;12.16;100.00;100728.13;5013563;28;20222;-75
2022/10/30 03:36:51;;;;;;;22.05;15.63;;;;;;;12.21;100.00;100731.47;5014120;28;20213;-75
2022/10/30 03:39:18;;;;;;;20.88;15.13;;;;;;;12.24;100.00;100732.22;5013561;28;20203;-75
2022/10/30 03:41:44;;;;;;;21.83;15.55;;;;;;;12.22;100.00;100728.72;5013348;28;20206;-74
2022/10/30 03:44:11;;;;;;;28.27;17.63;;;;;;;12.17;100.00;100732.59;5012633;28;20249;-75
2022/10/30 03:46:39;;;;;;;21.08;17.02;;;;;;;12.13;100.00;100729.13;5013529;28;20206;-76
2022/10/30 03:49:05;;;;;;;21.38;15.60;;;;;;;12.15;100.00;100716.44;5012501;28;20199;-75
2022/10/30 03:51:32;;;;;;;23.38;17.38;;;;;;;12.10;100.00;100719.38;5013353;28;20206;-76
2022/10/30 03:53:59;;;;;;;20.92;16.25;;;;;;;12.08;100.00;100726.66;5013082;28;20227;-76
2022/10/30 03:56:25;;;;;;;22.73;18.73;;;;;;;12.04;100.00;100713.38;5013801;28;20198;-75
2022/10/30 03:58:52;;;;;;;22.10;16.33;;;;;;;12.06;100.00;100711.47;5003412;28;20195;-75
2022/10/30 04:01:18;;;;;;;20.98;15.93;;;;;;;12.08;100.00;100712.28;5002458;28;20567;-73
2022/10/30 04:03:46;;;;;;;20.42;16.42;;;;;;;12.08;100.00;100706.88;5009075;28;20225;-74
2022/10/30 04:06:13;;;;;;;21.83;16.77;;;;;;;12.11;100.00;100706.72;5013272;28;20639;-74
2022/10/30 04:08:39;;;;;;;26.50;18.13;;;;;;;12.17;100.00;100703.75;5013254;28;20202;-73
2022/10/30 04:11:06;;;;;;;23.20;16.73;;;;;;;12.24;100.00;100709.75;5012860;28;20212;-73
2022/10/30 04:13:32;;;;;;;24.75;17.15;;;;;;;12.27;100.00;100706.88;5013107;28;20230;-75
2022/10/30 04:15:59;;;;;;;23.45;16.13;;;;;;;12.28;100.00;100696.03;5012730;28;20241;-75
2022/10/30 04:18:26;;;;;;;29.30;17.95;;;;;;;12.29;100.00;100705.84;5011161;28;20194;-74
2022/10/30 04:20:54;;;;;;;24.70;17.55;;;;;;;12.27;100.00;100709.59;5012834;28;20731;-76
2022/10/30 04:23:22;;;;;;;20.00;15.82;;;;;;;12.22;100.00;100711.63;5013385;28;20229;-76
2022/10/30 04:25:48;;;;;;;21.67;15.80;;;;;;;12.22;100.00;100707.09;5013114;28;20194;-76
2022/10/30 04:28:15;;;;;;;22.45;15.85;;;;;;;12.22;100.00;100701.69;5014566;28;20207;-73
2022/10/30 04:30:42;;;;;;;17.92;16.02;;;;;;;12.21;100.00;100702.66;5025300;28;20209;-73
2022/10/30 04:33:12;;;;;;;19.00;15.32;;;;;;;12.20;100.00;100700.91;5026643;28;20230;-74
2022/10/30 04:35:39;;;;;;;24.00;15.70;;;;;;;12.17;100.00;100705.59;5022660;28;20261;-74
2022/10/30 04:38:09;;;;;;;20.73;15.45;;;;;;;12.10;100.00;100702.28;5019509;28;20214;-74
2022/10/30 04:40:37;;;;;;;20.35;16.15;;;;;;;12.02;100.00;100701.75;5002840;28;20733;-76
2022/10/30 04:43:04;;;;;;;22.15;15.95;;;;;;;12.00;100.00;100699.13;4993899;28;20231;-75
2022/10/30 04:45:31;;;;;;;21.58;15.07;;;;;;;12.05;100.00;100689.00;4993950;28;20529;-74
2022/10/30 04:48:02;;;;;;;20.17;15.35;;;;;;;12.11;100.00;100698.63;4994317;28;20203;-74
2022/10/30 04:50:29;;;;;;;26.10;16.75;;;;;;;12.05;100.00;100697.13;4994143;28;20210;-73
2022/10/30 04:52:59;;;;;;;22.27;16.85;;;;;;;12.07;100.00;100699.72;4993613;28;20239;-76
2022/10/30 04:55:28;;;;;;;24.05;16.23;;;;;;;12.02;100.00;100699.06;4993151;28;20210;-74
2022/10/30 04:57:56;;;;;;;24.70;17.02;;;;;;;12.03;100.00;100704.41;4992516;28;20206;-75
2022/10/30 05:00:22;;;;;;;23.05;15.82;;;;;;;12.06;100.00;100706.09;4993037;28;20204;-72
2022/10/30 05:02:49;;;;;;;22.33;15.65;;;;;;;12.07;100.00;100700.63;4992877;28;20215;-74
2022/10/30 05:05:15;;;;;;;23.23;16.27;;;;;;;12.00;100.00;100701.81;4997359;28;20211;-74
2022/10/30 05:07:42;;;;;;;21.70;16.40;;;;;;;11.98;100.00;100698.31;5004012;28;20203;-76
2022/10/30 05:10:12;;;;;;;21.27;16.52;;;;;;;11.86;100.00;100699.72;4997527;28;20205;-76
2022/10/30 05:12:40;;;;;;;22.50;15.98;;;;;;;11.82;100.00;100705.34;4996772;28;20231;-73
2022/10/30 05:15:07;;;;;;;22.33;15.07;;;;;;;11.76;100.00;100701.13;4996300;28;20197;-76
2022/10/30 05:17:34;;;;;;;25.20;15.73;;;;;;;11.74;100.00;100702.13;5005963;28;20206;-78
2022/10/30 05:20:00;;;;;;;21.13;14.65;;;;;;;11.65;100.00;100700.72;5012868;28;20202;-76
2022/10/30 05:22:26;;;;;;;18.00;15.05;;;;;;;11.59;100.00;100703.69;5007264;28;20215;-74
2022/10/30 05:24:53;;;;;;;18.98;14.90;;;;;;;11.57;100.00;100703.75;5005653;28;20680;-77
2022/10/30 05:27:19;;;;;;;20.70;15.68;;;;;;;11.53;100.00;100702.13;4994395;28;20208;-76
2022/10/30 05:29:47;;;;;;;21.52;16.08;;;;;;;11.53;100.00;100709.34;5012605;28;20198;-75
2022/10/30 05:32:14;;;;;;;19.05;15.93;;;;;;;11.42;100.00;100702.63;5015996;28;20663;-75
2022/10/30 05:34:40;;;;;;;25.65;16.38;;;;;;;11.52;100.00;100699.53;5016399;28;20222;-77
2022/10/30 05:37:07;;;;;;;21.33;16.30;;;;;;;11.47;100.00;100700.59;5016331;28;20214;-73
2022/10/30 05:39:33;;;;;;;23.90;16.90;;;;;;;11.44;100.00;100702.53;5016402;28;20209;-74
2022/10/30 05:42:00;;;;;;;22.48;16.55;;;;;;;11.28;100.00;100696.94;4998400;28;20200;-75
2022/10/30 05:44:26;;;;;;;23.27;16.05;;;;;;;11.30;100.00;100705.84;4995990;28;20223;-76
2022/10/30 05:46:54;;;;;;;22.13;15.23;;;;;;;11.30;100.00;100700.44;4996616;28;20696;-73
2022/10/30 05:49:20;;;;;;;28.10;15.93;;;;;;;11.28;100.00;100702.34;4996246;28;20199;-75
2022/10/30 05:51:47;;;;;;;22.95;15.75;;;;;;;11.21;100.00;100701.72;4995959;28;20295;-75
2022/10/30 05:54:13;;;;;;;20.15;16.52;;;;;;;11.19;100.00;100698.25;4996090;28;20604;-76
2022/10/30 05:56:42;;;;;;;24.63;16.63;;;;;;;11.13;100.00;100709.28;4996316;28;20203;-75
2022/10/30 05:59:09;;;;;;;21.38;16.10;;;;;;;11.04;100.00;100704.28;4995948;28;20219;-76
2022/10/30 06:01:36;;;;;;;21.05;15.85;;;;;;;11.06;100.00;100708.66;4996277;28;20207;-76
2022/10/30 06:04:04;;;;;;;25.30;15.90;;;;;;;11.03;100.00;100710.59;4996109;28;20226;-77
2022/10/30 06:06:30;;;;;;;24.02;17.25;;;;;;;10.93;100.00;100710.13;4996508;28;20206;-75
2022/10/30 06:08:57;;;;;;;20.58;16.23;;;;;;;10.98;100.00;100707.22;4996053;28;20207;-76
2022/10/30 06:11:23;;;;;;;22.65;15.75;;;;;;;11.09;100.00;100717.56;4995764;28;20298;-75
2022/10/30 06:13:50;;;;;;;20.33;16.23;;;;;;;11.00;100.00;100727.78;5003276;28;20226;-75
2022/10/30 06:16:16;;;;;;;22.23;16.52;;;;;;;10.92;100.00;100716.47;5017268;28;20226;-75
2022/10/30 06:18:43;;;;;;;20.65;15.38;;;;;;;11.00;100.00;100713.44;4998285;28;20210;-74
2022/10/30 06:21:11;;;;;;;27.60;17.23;;;;;;;10.81;100.00;100718.72;4996378;28;20203;-75
2022/10/30 06:23:37;;;;;;;20.20;16.90;;;;;;;10.88;100.00;100722.91;4996114;28;20234;-77
2022/10/30 06:26:04;;;;;;;21.50;17.02;;;;;;;10.83;100.00;100720.41;5014316;28;20202;-76
2022/10/30 06:28:30;;;;;;;22.52;17.10;;;;;;;10.90;100.00;100723.75;5014915;28;20582;-78
2022/10/30 06:30:57;;;;;;;23.38;17.15;;;;;;;10.98;100.00;100721.56;5015104;28;20218;-74
2022/10/30 06:33:23;;;;;;;25.48;16.88;;;;;;;10.91;100.00;100730.00;5014391;28;20234;-75
2022/10/30 06:35:50;;;;;;;21.48;16.05;;;;;;;10.90;100.00;100733.63;5015395;28;20206;-76
2022/10/30 06:38:18;;;;;;;33.53;17.05;;;;;;;10.87;100.00;100731.94;5014803;28;20191;-74
2022/10/30 06:40:45;;;;;;;22.73;16.67;;;;;;;10.86;100.00;100730.19;5018928;28;20635;-75
2022/10/30 06:43:11;;;;;;;24.42;16.85;;;;;;;10.90;100.00;100734.53;5033125;22;20235;-74
2022/10/30 06:45:38;;;;;;;26.77;16.67;;;;;;;10.97;100.00;100733.31;5018440;28;20208;-74
2022/10/30 06:48:04;;;;;;;25.65;16.33;;;;;;;11.10;100.00;100740.88;5015402;28;20220;-75
2022/10/30 06:50:31;;;;;;;22.15;16.00;;;;;;;11.19;100.00;100735.09;5018528;28;20212;-75
2022/10/30 06:52:58;;;;;;;22.42;16.05;;;;;;;11.23;100.00;100740.28;5018206;28;20686;-75
2022/10/30 06:55:26;;;;;;;20.23;15.48;;;;;;;11.20;100.00;100742.25;5017999;28;20236;-75
2022/10/30 06:57:56;;;;;;;19.48;14.85;;;;;;;11.19;100.00;100741.38;5017492;28;20206;-74
2022/10/30 07:00:23;;;;;;;18.45;14.50;;;;;;;11.39;100.00;100743.19;5011866;28;20202;-73
2022/10/30 07:02:57;;;;;;;27.27;15.05;;;;;;;11.52;100.00;100738.16;4998460;28;20195;-74
2022/10/30 07:05:23;;;;;;;20.88;15.27;;;;;;;11.75;100.00;100738.97;5016875;28;20282;-74
2022/10/30 07:07:50;;;;;;;22.55;16.00;;;;;;;11.84;100.00;100743.94;5018205;28;20209;-76
2022/10/30 07:10:17;;;;;;;34.20;15.60;;;;;;;12.19;100.00;100745.06;5021040;28;20206;-73
2022/10/30 07:12:52;;;;;;;19.92;16.05;;;;;;;12.79;100.00;100744.00;5020406;28;20203;-70
2022/10/30 07:15:19;;;;;;;19.50;17.05;;;;;;;13.29;100.00;100748.75;5018784;28;20219;-69
2022/10/30 07:17:52;;;;;;;21.25;15.25;;;;;;;13.89;100.00;100749.19;5001972;28;20213;-74
2022/10/30 07:20:18;;;;;;;20.98;13.43;;;;;;;14.19;100.00;100740.38;5022002;28;20237;-75
2022/10/30 07:22:45;;;;;;;23.75;14.93;;;;;;;14.48;100.00;100735.16;5020055;28;20206;-73
2022/10/30 07:25:11;;;;;;;18.25;12.20;;;;;;;14.58;100.00;100731.00;5010258;28;20583;-73
2022/10/30 07:27:42;;;;;;;19.55;12.52;;;;;;;15.39;100.00;100725.38;5000408;28;20202;-75
2022/10/30 07:30:11;;;;;;;17.27;13.05;;;;;;;15.39;100.00;100719.94;4997795;28;20191;-75
2022/10/30 07:32:38;;;;;;;18.98;12.77;;;;;;;15.84;100.00;100721.69;5005491;28;20218;-76
2022/10/30 07:35:06;;;;;;;17.50;12.27;;;;;;;16.19;100.00;100721.34;5002965;28;20668;-74
2022/10/30 07:37:32;;;;;;;17.88;11.70;;;;;;;16.76;100.00;100728.53;5000393;28;20192;-76
2022/10/30 07:39:59;;;;;;;17.83;11.38;;;;;;;17.68;100.00;100719.59;5001227;28;20477;-75
2022/10/30 07:42:25;;;;;;;17.27;11.75;;;;;;;18.49;100.00;100731.09;5010820;28;20198;-75
2022/10/30 07:44:52;;;;;;;15.93;11.60;;;;;;;18.69;100.00;100729.63;5015270;28;20234;-74
2022/10/30 07:47:20;;;;;;;12.65;11.10;;;;;;;18.83;100.00;100724.03;5018619;28;20217;-77
2022/10/30 07:49:46;;;;;;;16.03;12.47;;;;;;;19.60;100.00;100726.38;5017954;28;20293;-76
2022/10/30 07:52:13;;;;;;;16.10;11.70;;;;;;;19.94;100.00;100721.91;5016799;28;20446;-74
2022/10/30 07:54:40;;;;;;;19.20;13.27;;;;;;;19.93;100.00;100728.34;5017410;28;20895;-76
2022/10/30 07:57:06;;;;;;;18.70;14.80;;;;;;;20.02;100.00;100726.75;5018713;28;20449;-75
2022/10/30 07:59:33;;;;;;;15.50;12.13;;;;;;;19.95;100.00;100725.50;5009399;28;20481;-78
2022/10/30 08:02:00;;;;;;;16.17;11.37;;;;;;;20.25;100.00;100729.50;4998259;28;20431;-75
2022/10/30 08:04:32;;;;;;;15.87;11.60;;;;;;;20.75;100.00;100729.97;4998717;28;20900;-75
2022/10/30 08:06:58;;;;;;;12.63;10.67;;;;;;;20.62;100.00;100732.84;5000293;28;20494;-76
2022/10/30 08:09:26;;;;;;;21.00;10.07;;;;;;;21.33;100.00;100729.69;4998288;28;20423;-78
2022/10/30 08:11:52;;;;;;;11.47;10.27;;;;;;;22.07;100.00;100727.78;5000925;28;20504;-74
2022/10/30 08:14:19;;;;;;;14.00;10.07;;;;;;;22.39;99.46;100735.03;5001487;28;20564;-74
2022/10/30 08:16:50;;;;;;;18.37;9.73;;;;;;;22.04;100.00;100727.19;4999659;28;20485;-75
2022/10/30 08:19:17;;;;;;;15.00;9.70;;;;;;;22.87;98.75;100731.56;4998838;28;20894;-77
2022/10/30 08:21:45;;;;;;;12.80;9.70;;;;;;;23.04;92.32;100741.06;5011472;28;20449;-76
2022/10/30 08:24:11;;;;;;;19.63;9.67;;;;;;;23.64;89.48;100727.16;5014359;28;20801;-70
2022/10/30 08:26:38;;;;;;;44.40;39.70;;;;;;;24.22;84.63;100728.97;5011978;28;20957;-72
2022/10/30 08:29:04;;;;;;;54.17;43.40;;;;;;;23.68;90.43;100739.63;5008121;28;20457;-70
2022/10/30 08:31:31;;;;;;;21.07;16.03;;;;;;;24.77;81.85;100733.66;4994108;28;20457;-69
2022/10/30 08:33:58;;;;;;;15.23;10.23;;;;;;;25.41;75.84;100740.06;4994823;28;20485;-69
2022/10/30 08:36:24;;;;;;;16.10;10.87;;;;;;;25.98;71.60;100740.56;4994238;28;20472;-72
2022/10/30 08:38:52;;;;;;;12.43;11.17;;;;;;;26.40;68.42;100745.31;4993772;28;20530;-71
2022/10/30 08:41:18;;;;;;;9.80;8.80;;;;;;;26.58;67.09;100738.88;4994064;28;20453;-71
2022/10/30 08:43:45;;;;;;;15.20;10.17;;;;;;;26.81;66.31;100740.00;4993426;28;20866;-70
2022/10/30 08:46:12;;;;;;;14.87;9.20;;;;;;;27.13;65.30;100745.78;4993662;28;20827;-71
2022/10/30 08:48:38;;;;;;;23.20;11.40;;;;;;;27.42;63.29;100748.97;5002070;28;20538;-71
2022/10/30 08:51:05;;;;;;;12.23;10.87;;;;;;;28.09;60.59;100744.34;5013686;28;20568;-70
2022/10/30 08:53:32;;;;;;;16.43;10.10;;;;;;;28.35;57.85;100744.09;5013966;28;20461;-72
2022/10/30 08:56:00;;;;;;;15.80;10.57;;;;;;;28.90;56.65;100748.78;5008721;28;20483;-71
2022/10/30 08:58:27;;;;;;;15.47;11.27;;;;;;;29.60;53.22;100742.28;4993494;28;20450;-70
2022/10/30 09:00:53;;;;;;;20.07;13.80;;;;;;;29.75;52.34;100734.03;5002134;28;20477;-71
2022/10/30 09:03:21;;;;;;;20.33;10.13;;;;;;;28.63;56.86;100728.81;5011223;28;20465;-73
2022/10/30 09:05:47;;;;;;;15.67;11.80;;;;;;;29.57;53.00;100733.44;5017848;28;20437;-70
2022/10/30 09:08:14;;;;;;;12.03;10.73;;;;;;;29.78;52.25;100730.88;5015214;28;20499;-70
2022/10/30 09:10:41;;;;;;;14.37;10.73;;;;;;;29.44;53.32;100728.50;5007032;28;20816;-71
2022/10/30 09:13:09;;;;;;;16.77;10.67;;;;;;;29.05;54.48;100723.91;4997391;28;20462;-73
2022/10/30 09:15:35;;;;;;;17.67;11.23;;;;;;;29.26;55.86;100726.94;4997359;28;20920;-73
2022/10/30 09:18:03;;;;;;;15.53;10.27;;;;;;;29.49;53.27;100720.53;5010314;28;20552;-71
2022/10/30 09:20:30;;;;;;;14.77;11.80;;;;;;;29.77;53.24;100717.19;5017211;28;20444;-71
2022/10/30 09:22:57;;;;;;;13.13;10.53;;;;;;;29.35;53.13;100722.16;5016413;28;20465;-72
2022/10/30 09:25:23;;;;;;;19.23;10.43;;;;;;;27.74;61.32;100721.50;5005776;28;20457;-72
2022/10/30 09:27:50;;;;;;;11.70;10.50;;;;;;;27.94;61.32;100722.91;5000224;28;20442;-72
2022/10/30 09:30:18;;;;;;;15.17;11.00;;;;;;;27.31;63.33;100718.03;4997350;28;20886;-71
2022/10/30 09:32:45;;;;;;;13.13;10.87;;;;;;;27.24;64.63;100726.16;4997243;28;20434;-72
2022/10/30 09:35:12;;;;;;;12.57;10.67;;;;;;;28.32;59.33;100719.53;5016911;28;20492;-71
2022/10/30 09:37:39;;;;;;;12.70;9.50;;;;;;;28.22;59.88;100725.25;5016842;28;20988;-72
2022/10/30 09:40:08;;;;;;;16.43;10.30;;;;;;;28.14;59.64;100720.63;5016987;28;20437;-73
2022/10/30 09:42:44;;;;;;;12.10;10.13;;;;;;;27.48;63.93;100718.94;5012570;28;20445;-71
2022/10/30 09:45:43;;;;;;;12.00;9.30;;;;;;;28.22;58.88;100728.03;5018236;28;20822;-71
2022/10/30 09:48:41;;;;;;;13.37;9.70;;;;;;;29.46;53.84;100720.88;4998935;28;20450;-71
2022/10/30 09:51:20;;;;;;;14.20;9.40;;;;;;;30.05;51.67;100715.53;4998047;28;20994;-72
2022/10/30 09:53:58;;;;;;;15.13;9.13;;;;;;;29.93;52.85;100717.03;4998437;28;20469;-72
2022/10/30 09:56:31;;;;;;;12.00;8.50;;;;;;;31.86;46.84;100715.81;4997325;28;20427;-73
2022/10/30 09:59:09;;;;;;;12.47;9.03;;;;;;;30.69;48.44;100720.53;4998021;28;20427;-71
2022/10/30 10:01:47;;;;;;;16.80;8.80;;;;;;;30.61;49.43;100717.00;4997750;28;20788;-73
2022/10/30 10:04:24;;;;;;;18.10;9.10;;;;;;;31.05;47.30;100728.06;4997230;28;20470;-74
2022/10/30 10:06:56;;;;;;;15.77;8.93;;;;;;;30.01;51.93;100722.50;4999035;28;20517;-69
2022/10/30 10:09:26;;;;;;;53.17;47.53;;;;;;;30.57;49.49;100722.06;4996845;28;20426;-70
2022/10/30 10:11:56;;;;;;;16.23;10.37;;;;;;;29.99;50.23;100721.84;4997918;28;20445;-72
2022/10/30 10:14:28;;;;;;;14.83;10.50;;;;;;;29.00;53.73;100716.13;4993588;28;20466;-69
2022/10/30 10:16:59;;;;;;;10.53;9.17;;;;;;;28.62;55.74;100707.66;4993118;28;20442;-68
2022/10/30 10:19:31;;;;;;;17.10;9.67;;;;;;;29.09;54.42;100711.44;4997358;28;20441;-72
2022/10/30 10:22:00;;;;;;;17.67;10.07;;;;;;;28.73;53.52;100709.19;5004065;28;20505;-68
2022/10/30 10:24:30;;;;;;;13.97;9.50;;;;;;;28.14;56.03;100704.00;4999482;28;20819;-71
2022/10/30 10:27:01;;;;;;;15.60;9.97;;;;;;;28.30;56.58;100702.22;4998693;28;20977;-68
2022/10/30 10:29:47;;;;;;;12.10;9.33;;;;;;;28.18;57.39;100701.75;4996709;28;20928;-68
2022/10/30 10:32:37;;;;;;;12.03;8.77;;;;;;;28.80;53.36;100703.78;4998866;28;20439;-69
2022/10/30 10:35:24;;;;;;;16.20;10.57;;;;;;;28.32;54.82;100692.69;4996724;28;20463;-69
2022/10/30 10:38:03;;;;;;;11.80;8.90;;;;;;;29.37;50.48;100697.03;4996333;28;20427;-71
2022/10/30 10:40:45;;;;;;;16.10;8.07;;;;;;;28.77;52.57;100682.84;4989616;28;20960;-69
2022/10/30 10:43:28;;;;;;;13.80;8.17;;;;;;;30.38;47.92;100687.41;4995715;28;20500;-67
2022/10/30 10:46:07;;;;;;;12.27;8.40;;;;;;;31.15;46.18;100694.38;4975753;28;20419;-66
2022/10/30 10:49:03;;;;;;;15.00;7.57;;;;;;;32.88;42.66;100689.25;4982729;28;20454;-68
2022/10/30 10:51:35;;;;;;;14.93;8.73;;;;;;;32.16;42.63;100686.72;4993488;28;20465;-68
2022/10/30 10:54:11;;;;;;;13.63;8.00;;;;;;;33.30;41.12;100685.31;4995394;28;20463;-70
2022/10/30 10:56:41;;;;;;;12.80;7.27;;;;;;;33.61;39.38;100683.88;4995948;28;20473;-69
2022/10/30 10:59:17;;;;;;;8.97;7.77;;;;;;;34.64;38.21;100684.19;4994083;28;20447;-67
2022/10/30 11:01:49;;;;;;;11.63;7.37;;;;;;;33.03;39.79;100682.41;4995565;28;20442;-69
2022/10/30 11:04:26;;;;;;;11.30;6.67;;;;;;;32.15;40.90;100667.44;4994630;28;20466;-67
2022/10/30 11:06:55;;;;;;;17.57;6.93;;;;;;;31.00;43.57;100671.28;4994936;28;20831;-68
2022/10/30 11:09:23;;;;;;;8.20;6.23;;;;;;;31.40;42.99;100674.50;5003551;28;20443;-69
2022/10/30 11:11:52;;;;;;;7.20;6.10;;;;;;;31.91;42.29;100666.81;4995869;28;20438;-68